sensor_id;sensor_type;location;lat;lon;timestamp;noise_LAeq;noise_LA_min;noise_LA_max;noise_LA01;noise_LA95
70245;Laerm;57637;49.272;8.590;2023-04-01T00:01:04;36.89;32.75;45.61;;
70245;Laerm;57637;49.272;8.590;2023-04-01T00:03:30;38.54;33.67;45.73;;
70245;Laerm;57637;49.272;8.590;2023-04-01T00:05:57;35.07;31.11;45.84;;
70245;Laerm;57637;49.272;8.590;2023-04-01T00:08:23;35.75;32.32;45.21;;
70245;Laerm;57637;49.272;8.590;2023-04-01T00:10:49;35.88;31.84;45.90;;
70245;Laerm;57637;49.272;8.590;2023-04-01T00:13:15;35.90;31.79;49.46;;
70245;Laerm;57637;49.272;8.590;2023-04-01T00:15:41;35.50;31.79;52.75;;
70245;Laerm;57637;49.272;8.590;2023-04-01T00:18:07;36.39;31.81;46.83;;
70245;Laerm;57637;49.272;8.590;2023-04-01T00:20:33;35.41;32.17;45.29;;
70245;Laerm;57637;49.272;8.590;2023-04-01T00:22:59;34.63;31.37;42.69;;
70245;Laerm;57637;49.272;8.590;2023-04-01T00:25:25;36.11;32.02;47.52;;
70245;Laerm;57637;49.272;8.590;2023-04-01T00:27:51;35.44;32.15;48.88;;
70245;Laerm;57637;49.272;8.590;2023-04-01T00:30:17;34.78;31.88;50.73;;
70245;Laerm;57637;49.272;8.590;2023-04-01T00:32:42;34.69;31.55;43.90;;
70245;Laerm;57637;49.272;8.590;2023-04-01T00:35:08;33.57;30.91;41.49;;
70245;Laerm;57637;49.272;8.590;2023-04-01T00:37:37;35.26;30.98;46.91;;
70245;Laerm;57637;49.272;8.590;2023-04-01T00:40:06;35.29;30.63;54.21;;
70245;Laerm;57637;49.272;8.590;2023-04-01T00:42:32;34.27;31.51;44.00;;
70245;Laerm;57637;49.272;8.590;2023-04-01T00:44:57;37.20;32.02;46.75;;
70245;Laerm;57637;49.272;8.590;2023-04-01T00:47:25;35.74;31.39;52.70;;
70245;Laerm;57637;49.272;8.590;2023-04-01T00:49:53;38.23;31.50;54.72;;
70245;Laerm;57637;49.272;8.590;2023-04-01T00:52:21;35.85;31.04;48.47;;
70245;Laerm;57637;49.272;8.590;2023-04-01T00:54:50;34.67;31.02;47.33;;
70245;Laerm;57637;49.272;8.590;2023-04-01T00:57:19;36.20;32.62;53.77;;
70245;Laerm;57637;49.272;8.590;2023-04-01T00:59:48;36.45;31.95;43.83;;
70245;Laerm;57637;49.272;8.590;2023-04-01T01:02:15;34.54;31.60;41.45;;
70245;Laerm;57637;49.272;8.590;2023-04-01T01:04:41;35.08;31.97;44.11;;
70245;Laerm;57637;49.272;8.590;2023-04-01T01:12:38;34.95;31.25;42.25;;
70245;Laerm;57637;49.272;8.590;2023-04-01T01:15:21;34.91;31.41;46.48;;
70245;Laerm;57637;49.272;8.590;2023-04-01T01:29:04;35.03;31.23;49.40;;
70245;Laerm;57637;49.272;8.590;2023-04-01T01:31:37;36.88;31.88;47.57;;
70245;Laerm;57637;49.272;8.590;2023-04-01T01:34:40;34.54;31.28;45.42;;
70245;Laerm;57637;49.272;8.590;2023-04-01T01:37:13;33.92;31.40;44.58;;
70245;Laerm;57637;49.272;8.590;2023-04-01T01:39:42;34.92;30.62;55.27;;
70245;Laerm;57637;49.272;8.590;2023-04-01T01:42:09;35.13;31.56;47.19;;
70245;Laerm;57637;49.272;8.590;2023-04-01T01:44:37;35.09;31.64;43.53;;
70245;Laerm;57637;49.272;8.590;2023-04-01T01:47:03;34.72;31.79;44.42;;
70245;Laerm;57637;49.272;8.590;2023-04-01T01:49:31;34.28;30.97;44.21;;
70245;Laerm;57637;49.272;8.590;2023-04-01T01:51:59;34.04;31.42;46.81;;
70245;Laerm;57637;49.272;8.590;2023-04-01T01:54:24;34.93;31.72;46.17;;
70245;Laerm;57637;49.272;8.590;2023-04-01T01:56:55;33.99;31.61;41.60;;
70245;Laerm;57637;49.272;8.590;2023-04-01T01:59:22;35.12;31.43;49.35;;
70245;Laerm;57637;49.272;8.590;2023-04-01T02:01:50;35.48;31.59;48.53;;
70245;Laerm;57637;49.272;8.590;2023-04-01T02:04:18;34.22;31.65;41.94;;
70245;Laerm;57637;49.272;8.590;2023-04-01T02:06:50;37.84;33.05;57.00;;
70245;Laerm;57637;49.272;8.590;2023-04-01T02:09:19;40.11;32.64;50.84;;
70245;Laerm;57637;49.272;8.590;2023-04-01T02:11:52;37.99;33.25;50.27;;
70245;Laerm;57637;49.272;8.590;2023-04-01T02:14:27;41.59;33.59;54.74;;
70245;Laerm;57637;49.272;8.590;2023-04-01T02:16:57;36.90;32.10;51.02;;
70245;Laerm;57637;49.272;8.590;2023-04-01T02:19:38;36.65;32.56;49.35;;
70245;Laerm;57637;49.272;8.590;2023-04-01T02:22:09;35.94;32.03;50.83;;
70245;Laerm;57637;49.272;8.590;2023-04-01T02:24:38;36.05;32.00;51.20;;
70245;Laerm;57637;49.272;8.590;2023-04-01T02:27:05;35.52;31.27;43.19;;
70245;Laerm;57637;49.272;8.590;2023-04-01T02:29:30;35.29;32.45;43.41;;
70245;Laerm;57637;49.272;8.590;2023-04-01T02:31:56;35.73;31.88;48.72;;
70245;Laerm;57637;49.272;8.590;2023-04-01T02:34:24;34.56;31.98;41.16;;
70245;Laerm;57637;49.272;8.590;2023-04-01T02:36:51;35.32;32.17;43.05;;
70245;Laerm;57637;49.272;8.590;2023-04-01T02:39:17;35.79;32.10;44.04;;
70245;Laerm;57637;49.272;8.590;2023-04-01T02:41:44;35.70;32.18;48.44;;
70245;Laerm;57637;49.272;8.590;2023-04-01T02:44:12;35.13;31.52;43.82;;
70245;Laerm;57637;49.272;8.590;2023-04-01T02:46:38;34.44;31.48;41.64;;
70245;Laerm;57637;49.272;8.590;2023-04-01T02:49:04;34.92;31.64;44.03;;
70245;Laerm;57637;49.272;8.590;2023-04-01T02:51:30;34.89;32.00;42.99;;
70245;Laerm;57637;49.272;8.590;2023-04-01T02:53:55;35.75;32.09;49.09;;
70245;Laerm;57637;49.272;8.590;2023-04-01T02:56:21;36.41;32.47;43.21;;
70245;Laerm;57637;49.272;8.590;2023-04-01T02:58:47;34.11;31.53;44.94;;
70245;Laerm;57637;49.272;8.590;2023-04-01T03:01:15;34.88;31.89;43.50;;
70245;Laerm;57637;49.272;8.590;2023-04-01T03:03:41;36.18;32.59;48.02;;
70245;Laerm;57637;49.272;8.590;2023-04-01T03:06:11;35.22;32.02;43.17;;
70245;Laerm;57637;49.272;8.590;2023-04-01T03:08:38;35.01;32.26;46.38;;
70245;Laerm;57637;49.272;8.590;2023-04-01T03:11:03;34.50;31.59;41.36;;
70245;Laerm;57637;49.272;8.590;2023-04-01T03:13:29;35.80;32.12;44.81;;
70245;Laerm;57637;49.272;8.590;2023-04-01T03:15:54;35.44;32.43;47.01;;
70245;Laerm;57637;49.272;8.590;2023-04-01T03:18:20;35.56;32.66;45.97;;
70245;Laerm;57637;49.272;8.590;2023-04-01T03:20:45;36.71;33.08;52.57;;
70245;Laerm;57637;49.272;8.590;2023-04-01T03:23:10;38.06;33.61;51.10;;
70245;Laerm;57637;49.272;8.590;2023-04-01T03:25:36;37.66;33.67;51.93;;
70245;Laerm;57637;49.272;8.590;2023-04-01T03:28:01;36.67;32.91;50.29;;
70245;Laerm;57637;49.272;8.590;2023-04-01T03:30:27;36.63;32.77;50.55;;
70245;Laerm;57637;49.272;8.590;2023-04-01T03:32:55;38.11;32.73;48.03;;
70245;Laerm;57637;49.272;8.590;2023-04-01T03:35:20;37.31;32.68;48.37;;
70245;Laerm;57637;49.272;8.590;2023-04-01T03:37:46;37.12;33.13;49.09;;
70245;Laerm;57637;49.272;8.590;2023-04-01T03:40:11;37.14;33.53;45.68;;
70245;Laerm;57637;49.272;8.590;2023-04-01T03:42:37;36.36;32.89;47.56;;
70245;Laerm;57637;49.272;8.590;2023-04-01T03:45:03;36.79;32.00;48.92;;
70245;Laerm;57637;49.272;8.590;2023-04-01T03:47:29;36.08;32.72;43.32;;
70245;Laerm;57637;49.272;8.590;2023-04-01T03:49:54;36.89;33.05;55.32;;
70245;Laerm;57637;49.272;8.590;2023-04-01T03:52:20;36.15;32.26;49.76;;
70245;Laerm;57637;49.272;8.590;2023-04-01T03:54:45;36.51;32.24;47.92;;
70245;Laerm;57637;49.272;8.590;2023-04-01T03:57:11;37.46;33.64;49.68;;
70245;Laerm;57637;49.272;8.590;2023-04-01T03:59:36;38.13;34.00;46.08;;
70245;Laerm;57637;49.272;8.590;2023-04-01T04:02:02;37.44;32.78;47.13;;
70245;Laerm;57637;49.272;8.590;2023-04-01T04:04:28;37.12;33.87;45.04;;
70245;Laerm;57637;49.272;8.590;2023-04-01T04:06:53;39.87;35.11;51.36;;
70245;Laerm;57637;49.272;8.590;2023-04-01T04:09:19;38.92;35.03;48.86;;
70245;Laerm;57637;49.272;8.590;2023-04-01T04:11:44;42.16;34.90;63.74;;
70245;Laerm;57637;49.272;8.590;2023-04-01T04:14:10;42.49;36.04;62.77;;
70245;Laerm;57637;49.272;8.590;2023-04-01T04:16:36;39.89;34.46;51.25;;
70245;Laerm;57637;49.272;8.590;2023-04-01T04:19:02;40.04;33.06;49.64;;
70245;Laerm;57637;49.272;8.590;2023-04-01T04:21:28;46.66;34.31;69.59;;
70245;Laerm;57637;49.272;8.590;2023-04-01T04:23:53;49.59;33.30;63.26;;
70245;Laerm;57637;49.272;8.590;2023-04-01T04:26:19;49.20;34.61;66.81;;
70245;Laerm;57637;49.272;8.590;2023-04-01T04:28:44;47.28;34.75;64.22;;
70245;Laerm;57637;49.272;8.590;2023-04-01T04:31:10;38.55;34.20;56.44;;
70245;Laerm;57637;49.272;8.590;2023-04-01T04:33:36;39.07;34.03;51.70;;
70245;Laerm;57637;49.272;8.590;2023-04-01T04:36:03;40.58;34.20;57.14;;
70245;Laerm;57637;49.272;8.590;2023-04-01T04:38:29;45.92;34.82;63.03;;
70245;Laerm;57637;49.272;8.590;2023-04-01T04:40:54;50.25;34.68;76.16;;
70245;Laerm;57637;49.272;8.590;2023-04-01T04:43:20;40.65;35.05;51.17;;
70245;Laerm;57637;49.272;8.590;2023-04-01T04:45:46;38.61;34.70;53.12;;
70245;Laerm;57637;49.272;8.590;2023-04-01T04:48:13;39.05;35.06;46.29;;
70245;Laerm;57637;49.272;8.590;2023-04-01T04:50:43;40.54;36.07;50.39;;
70245;Laerm;57637;49.272;8.590;2023-04-01T04:53:12;41.12;35.99;64.01;;
70245;Laerm;57637;49.272;8.590;2023-04-01T04:55:48;41.20;35.66;56.43;;
70245;Laerm;57637;49.272;8.590;2023-04-01T04:58:15;41.39;35.10;62.60;;
70245;Laerm;57637;49.272;8.590;2023-04-01T05:00:40;41.45;36.10;64.09;;
70245;Laerm;57637;49.272;8.590;2023-04-01T05:03:06;41.59;35.61;56.11;;
70245;Laerm;57637;49.272;8.590;2023-04-01T05:05:31;42.80;35.86;63.36;;
70245;Laerm;57637;49.272;8.590;2023-04-01T05:07:57;42.04;35.99;61.32;;
70245;Laerm;57637;49.272;8.590;2023-04-01T05:10:22;40.46;34.52;58.36;;
70245;Laerm;57637;49.272;8.590;2023-04-01T05:12:47;39.99;35.27;58.27;;
70245;Laerm;57637;49.272;8.590;2023-04-01T05:15:13;41.97;34.96;66.31;;
70245;Laerm;57637;49.272;8.590;2023-04-01T05:17:39;46.00;35.71;68.72;;
70245;Laerm;57637;49.272;8.590;2023-04-01T05:20:05;47.84;35.35;67.67;;
70245;Laerm;57637;49.272;8.590;2023-04-01T05:22:31;40.81;34.03;62.78;;
70245;Laerm;57637;49.272;8.590;2023-04-01T05:24:56;40.71;34.05;58.13;;
70245;Laerm;57637;49.272;8.590;2023-04-01T05:27:21;43.38;35.65;62.27;;
70245;Laerm;57637;49.272;8.590;2023-04-01T05:29:47;41.55;35.68;62.40;;
70245;Laerm;57637;49.272;8.590;2023-04-01T05:32:12;42.77;34.48;65.28;;
70245;Laerm;57637;49.272;8.590;2023-04-01T05:34:37;46.78;36.83;62.57;;
70245;Laerm;57637;49.272;8.590;2023-04-01T05:37:03;47.34;35.15;68.49;;
70245;Laerm;57637;49.272;8.590;2023-04-01T05:39:28;45.85;36.94;64.91;;
70245;Laerm;57637;49.272;8.590;2023-04-01T05:41:54;47.51;35.21;63.64;;
70245;Laerm;57637;49.272;8.590;2023-04-01T05:44:19;53.52;34.63;76.47;;
70245;Laerm;57637;49.272;8.590;2023-04-01T05:46:45;45.87;35.31;60.35;;
70245;Laerm;57637;49.272;8.590;2023-04-01T05:49:10;44.25;35.92;59.19;;
70245;Laerm;57637;49.272;8.590;2023-04-01T05:51:35;44.74;35.37;61.70;;
70245;Laerm;57637;49.272;8.590;2023-04-01T05:54:01;51.01;34.65;72.54;;
70245;Laerm;57637;49.272;8.590;2023-04-01T05:56:26;47.48;35.59;62.99;;
70245;Laerm;57637;49.272;8.590;2023-04-01T05:58:53;43.40;34.50;62.47;;
70245;Laerm;57637;49.272;8.590;2023-04-01T06:01:19;44.58;35.10;66.64;;
70245;Laerm;57637;49.272;8.590;2023-04-01T06:03:44;44.84;35.29;61.11;;
70245;Laerm;57637;49.272;8.590;2023-04-01T06:06:15;43.27;35.77;64.20;;
70245;Laerm;57637;49.272;8.590;2023-04-01T06:08:41;45.87;36.08;60.57;;
70245;Laerm;57637;49.272;8.590;2023-04-01T06:11:12;48.33;35.76;64.18;;
70245;Laerm;57637;49.272;8.590;2023-04-01T06:22:12;55.38;35.45;76.26;;
70245;Laerm;57637;49.272;8.590;2023-04-01T06:25:15;51.58;36.05;72.67;;
70245;Laerm;57637;49.272;8.590;2023-04-01T06:30:35;49.70;36.77;67.82;;
70245;Laerm;57637;49.272;8.590;2023-04-01T06:49:04;49.10;42.04;63.43;;
70245;Laerm;57637;49.272;8.590;2023-04-01T06:52:05;51.12;41.52;66.52;;
70245;Laerm;57637;49.272;8.590;2023-04-01T06:54:40;53.15;41.48;77.33;;
70245;Laerm;57637;49.272;8.590;2023-04-01T07:00:13;47.13;40.51;67.98;;
70245;Laerm;57637;49.272;8.590;2023-04-01T07:02:45;47.93;41.26;63.47;;
70245;Laerm;57637;49.272;8.590;2023-04-01T07:05:14;49.89;41.01;68.79;;
70245;Laerm;57637;49.272;8.590;2023-04-01T07:07:45;50.36;38.76;67.91;;
70245;Laerm;57637;49.272;8.590;2023-04-01T07:10:31;48.99;36.72;67.80;;
70245;Laerm;57637;49.272;8.590;2023-04-01T07:13:00;49.77;37.11;69.34;;
70245;Laerm;57637;49.272;8.590;2023-04-01T07:15:36;46.72;36.92;60.04;;
70245;Laerm;57637;49.272;8.590;2023-04-01T07:18:21;47.80;37.64;66.40;;
70245;Laerm;57637;49.272;8.590;2023-04-01T07:20:48;47.59;37.95;70.31;;
70245;Laerm;57637;49.272;8.590;2023-04-01T07:23:24;48.11;37.99;61.05;;
70245;Laerm;57637;49.272;8.590;2023-04-01T07:26:11;48.39;37.91;64.46;;
70245;Laerm;57637;49.272;8.590;2023-04-01T07:28:39;44.94;36.88;62.26;;
70245;Laerm;57637;49.272;8.590;2023-04-01T07:42:15;51.77;37.35;72.28;;
70245;Laerm;57637;49.272;8.590;2023-04-01T07:57:51;48.89;37.89;67.46;;
70245;Laerm;57637;49.272;8.590;2023-04-01T08:00:22;72.10;38.66;85.11;;
70245;Laerm;57637;49.272;8.590;2023-04-01T08:05:55;60.07;39.93;76.17;;
70245;Laerm;57637;49.272;8.590;2023-04-01T08:11:10;52.55;39.13;72.27;;
70245;Laerm;57637;49.272;8.590;2023-04-01T08:16:37;64.23;39.32;81.64;;
70245;Laerm;57637;49.272;8.590;2023-04-01T08:21:45;67.94;40.36;79.81;;
70245;Laerm;57637;49.272;8.590;2023-04-01T08:24:36;70.77;38.44;82.82;;
70245;Laerm;57637;49.272;8.590;2023-04-01T08:27:12;45.17;38.60;64.10;;
70245;Laerm;57637;49.272;8.590;2023-04-01T08:29:46;49.48;39.24;65.70;;
70245;Laerm;57637;49.272;8.590;2023-04-01T08:32:22;66.70;40.04;86.95;;
70245;Laerm;57637;49.272;8.590;2023-04-01T08:34:58;65.43;38.82;85.48;;
70245;Laerm;57637;49.272;8.590;2023-04-01T08:37:32;57.85;39.44;76.84;;
70245;Laerm;57637;49.272;8.590;2023-04-01T08:46:13;64.79;39.07;78.84;;
70245;Laerm;57637;49.272;8.590;2023-04-01T08:49:02;71.83;38.75;82.87;;
70245;Laerm;57637;49.272;8.590;2023-04-01T08:51:55;49.06;38.34;72.78;;
70245;Laerm;57637;49.272;8.590;2023-04-01T09:02:57;68.03;39.40;86.61;;
70245;Laerm;57637;49.272;8.590;2023-04-01T09:08:47;60.92;37.99;75.46;;
70245;Laerm;57637;49.272;8.590;2023-04-01T09:11:25;71.72;38.67;83.70;;
70245;Laerm;57637;49.272;8.590;2023-04-01T09:14:03;70.07;39.10;81.57;;
70245;Laerm;57637;49.272;8.590;2023-04-01T09:27:26;73.09;37.31;87.47;;
70245;Laerm;57637;49.272;8.590;2023-04-01T09:35:48;58.55;38.58;84.20;;
70245;Laerm;57637;49.272;8.590;2023-04-01T09:57:31;50.47;38.02;66.12;;
70245;Laerm;57637;49.272;8.590;2023-04-01T10:11:39;45.12;38.45;57.36;;
70245;Laerm;57637;49.272;8.590;2023-04-01T10:25:53;46.61;38.30;65.22;;
70245;Laerm;57637;49.272;8.590;2023-04-01T10:34:22;46.41;36.78;70.60;;
70245;Laerm;57637;49.272;8.590;2023-04-01T10:45:05;47.75;37.73;63.24;;
70245;Laerm;57637;49.272;8.590;2023-04-01T10:50:16;76.34;37.44;84.67;;
70245;Laerm;57637;49.272;8.590;2023-04-01T10:53:07;76.58;36.86;86.57;;
70245;Laerm;57637;49.272;8.590;2023-04-01T10:58:39;74.21;38.07;87.28;;
70245;Laerm;57637;49.272;8.590;2023-04-01T11:01:44;75.70;38.30;86.73;;
70245;Laerm;57637;49.272;8.590;2023-04-01T11:18:00;52.40;38.06;80.62;;
70245;Laerm;57637;49.272;8.590;2023-04-01T11:21:03;55.81;37.35;79.47;;
70245;Laerm;57637;49.272;8.590;2023-04-01T11:23:40;48.52;38.25;72.06;;
70245;Laerm;57637;49.272;8.590;2023-04-01T11:26:11;58.05;37.82;81.86;;
70245;Laerm;57637;49.272;8.590;2023-04-01T11:29:00;63.54;37.23;81.86;;
70245;Laerm;57637;49.272;8.590;2023-04-01T11:31:44;45.42;36.95;69.04;;
70245;Laerm;57637;49.272;8.590;2023-04-01T11:42:54;57.74;36.53;80.04;;
70245;Laerm;57637;49.272;8.590;2023-04-01T11:48:13;68.28;38.01;98.72;;
70245;Laerm;57637;49.272;8.590;2023-04-01T11:56:26;59.35;38.14;86.47;;
70245;Laerm;57637;49.272;8.590;2023-04-01T12:02:28;62.71;38.46;86.51;;
70245;Laerm;57637;49.272;8.590;2023-04-01T12:10:54;45.40;37.45;64.12;;
70245;Laerm;57637;49.272;8.590;2023-04-01T12:13:42;46.72;37.58;60.34;;
70245;Laerm;57637;49.272;8.590;2023-04-01T12:16:41;45.85;38.73;63.16;;
70245;Laerm;57637;49.272;8.590;2023-04-01T12:19:15;48.50;36.56;64.78;;
70245;Laerm;57637;49.272;8.590;2023-04-01T12:24:45;44.64;37.10;67.98;;
70245;Laerm;57637;49.272;8.590;2023-04-01T12:27:59;49.11;37.90;67.17;;
70245;Laerm;57637;49.272;8.590;2023-04-01T12:36:40;53.60;37.26;70.98;;
70245;Laerm;57637;49.272;8.590;2023-04-01T12:39:33;51.49;37.20;71.56;;
70245;Laerm;57637;49.272;8.590;2023-04-01T12:42:30;44.23;36.05;55.05;;
70245;Laerm;57637;49.272;8.590;2023-04-01T12:45:12;48.02;36.39;68.27;;
70245;Laerm;57637;49.272;8.590;2023-04-01T12:48:03;48.09;37.06;76.13;;
70245;Laerm;57637;49.272;8.590;2023-04-01T12:55:46;46.84;36.74;64.55;;
70245;Laerm;57637;49.272;8.590;2023-04-01T12:58:49;42.50;35.78;59.03;;
70245;Laerm;57637;49.272;8.590;2023-04-01T13:01:40;42.65;37.08;58.53;;
70245;Laerm;57637;49.272;8.590;2023-04-01T13:13:28;66.28;36.22;81.86;;
70245;Laerm;57637;49.272;8.590;2023-04-01T13:26:35;64.71;36.33;83.21;;
70245;Laerm;57637;49.272;8.590;2023-04-01T13:29:10;54.21;36.33;79.55;;
70245;Laerm;57637;49.272;8.590;2023-04-01T13:34:45;47.46;37.77;72.25;;
70245;Laerm;57637;49.272;8.590;2023-04-01T13:42:27;73.41;38.65;89.89;;
70245;Laerm;57637;49.272;8.590;2023-04-01T13:45:15;46.92;37.00;72.11;;
70245;Laerm;57637;49.272;8.590;2023-04-01T13:48:15;59.27;37.29;78.53;;
70245;Laerm;57637;49.272;8.590;2023-04-01T14:01:42;54.37;35.82;83.36;;
70245;Laerm;57637;49.272;8.590;2023-04-01T14:08:00;59.07;37.34;86.08;;
70245;Laerm;57637;49.272;8.590;2023-04-01T14:10:13;47.75;37.05;70.34;;
70245;Laerm;57637;49.272;8.590;2023-04-01T14:21:09;45.12;37.48;55.21;;
70245;Laerm;57637;49.272;8.590;2023-04-01T14:35:13;42.78;36.21;67.03;;
70245;Laerm;57637;49.272;8.590;2023-04-01T14:37:58;43.77;34.83;65.27;;
70245;Laerm;57637;49.272;8.590;2023-04-01T14:51:46;49.19;37.24;58.06;;
70245;Laerm;57637;49.272;8.590;2023-04-01T14:54:16;43.59;36.24;57.12;;
70245;Laerm;57637;49.272;8.590;2023-04-01T14:57:10;56.93;35.87;73.67;;
70245;Laerm;57637;49.272;8.590;2023-04-01T14:59:51;53.27;35.36;72.00;;
70245;Laerm;57637;49.272;8.590;2023-04-01T15:05:56;46.67;36.55;59.70;;
70245;Laerm;57637;49.272;8.590;2023-04-01T15:08:24;43.54;36.34;58.44;;
70245;Laerm;57637;49.272;8.590;2023-04-01T15:14:39;43.68;34.11;59.54;;
70245;Laerm;57637;49.272;8.590;2023-04-01T15:17:05;41.03;36.30;56.77;;
70245;Laerm;57637;49.272;8.590;2023-04-01T15:25:32;41.84;34.87;57.35;;
70245;Laerm;57637;49.272;8.590;2023-04-01T15:30:44;42.01;34.27;62.69;;
70245;Laerm;57637;49.272;8.590;2023-04-01T15:36:33;43.74;35.97;68.68;;
70245;Laerm;57637;49.272;8.590;2023-04-01T15:44:37;43.22;34.66;60.83;;
70245;Laerm;57637;49.272;8.590;2023-04-01T16:01:35;43.29;36.14;53.99;;
70245;Laerm;57637;49.272;8.590;2023-04-01T16:21:05;45.69;36.03;66.07;;
70245;Laerm;57637;49.272;8.590;2023-04-01T16:23:55;41.26;35.49;61.42;;
70245;Laerm;57637;49.272;8.590;2023-04-01T16:26:29;40.90;35.29;58.83;;
70245;Laerm;57637;49.272;8.590;2023-04-01T16:28:57;41.97;35.89;58.71;;
70245;Laerm;57637;49.272;8.590;2023-04-01T16:31:51;41.15;34.90;59.00;;
70245;Laerm;57637;49.272;8.590;2023-04-01T16:34:42;40.66;35.39;50.82;;
70245;Laerm;57637;49.272;8.590;2023-04-01T16:37:13;41.55;34.60;57.84;;
70245;Laerm;57637;49.272;8.590;2023-04-01T16:42:51;41.36;35.51;58.99;;
70245;Laerm;57637;49.272;8.590;2023-04-01T16:45:30;38.30;34.37;52.80;;
70245;Laerm;57637;49.272;8.590;2023-04-01T16:48:15;39.55;35.35;49.69;;
70245;Laerm;57637;49.272;8.590;2023-04-01T16:50:51;40.86;35.38;56.57;;
70245;Laerm;57637;49.272;8.590;2023-04-01T16:53:36;39.96;35.06;53.77;;
70245;Laerm;57637;49.272;8.590;2023-04-01T16:58:36;42.00;34.52;65.15;;
70245;Laerm;57637;49.272;8.590;2023-04-01T17:01:14;43.69;36.14;54.85;;
70245;Laerm;57637;49.272;8.590;2023-04-01T17:03:46;39.72;35.02;48.87;;
70245;Laerm;57637;49.272;8.590;2023-04-01T17:11:27;40.75;36.26;57.97;;
70245;Laerm;57637;49.272;8.590;2023-04-01T17:53:11;42.76;38.54;57.93;;
70245;Laerm;57637;49.272;8.590;2023-04-01T18:57:45;38.22;33.86;49.99;;
70245;Laerm;57637;49.272;8.590;2023-04-01T19:00:21;40.35;35.10;52.19;;
70245;Laerm;57637;49.272;8.590;2023-04-01T19:02:55;38.36;32.30;49.87;;
70245;Laerm;57637;49.272;8.590;2023-04-01T19:05:31;44.17;32.86;65.41;;
70245;Laerm;57637;49.272;8.590;2023-04-01T19:22:03;38.11;32.03;52.33;;
70245;Laerm;57637;49.272;8.590;2023-04-01T19:24:41;36.45;32.34;48.76;;
70245;Laerm;57637;49.272;8.590;2023-04-01T19:27:32;37.24;32.78;62.97;;
70245;Laerm;57637;49.272;8.590;2023-04-01T19:41:29;40.67;33.42;57.15;;
70245;Laerm;57637;49.272;8.590;2023-04-01T19:52:37;36.03;31.98;53.49;;
70245;Laerm;57637;49.272;8.590;2023-04-01T20:00:37;35.29;32.43;45.22;;
70245;Laerm;57637;49.272;8.590;2023-04-01T20:16:18;35.90;32.80;44.75;;
70245;Laerm;57637;49.272;8.590;2023-04-01T20:18:57;41.44;33.42;51.67;;
70245;Laerm;57637;49.272;8.590;2023-04-01T20:24:13;36.45;31.07;44.72;;
70245;Laerm;57637;49.272;8.590;2023-04-01T20:26:48;40.28;36.90;46.30;;
70245;Laerm;57637;49.272;8.590;2023-04-01T20:32:32;44.72;38.94;62.61;;
70245;Laerm;57637;49.272;8.590;2023-04-01T20:37:44;41.19;37.72;56.52;;
70245;Laerm;57637;49.272;8.590;2023-04-01T20:40:37;38.28;34.52;56.05;;
70245;Laerm;57637;49.272;8.590;2023-04-01T20:43:30;38.42;34.58;52.19;;
70245;Laerm;57637;49.272;8.590;2023-04-01T20:46:14;39.70;33.23;56.04;;
70245;Laerm;57637;49.272;8.590;2023-04-01T20:48:54;38.29;33.56;50.55;;
70245;Laerm;57637;49.272;8.590;2023-04-01T20:51:26;37.07;32.36;50.74;;
70245;Laerm;57637;49.272;8.590;2023-04-01T20:54:30;39.35;33.23;55.59;;
70245;Laerm;57637;49.272;8.590;2023-04-01T20:57:14;34.56;30.62;47.62;;
70245;Laerm;57637;49.272;8.590;2023-04-01T21:05:49;35.28;31.85;47.40;;
70245;Laerm;57637;49.272;8.590;2023-04-01T21:11:08;42.99;31.73;62.89;;
70245;Laerm;57637;49.272;8.590;2023-04-01T21:18:54;32.96;30.36;38.94;;
70245;Laerm;57637;49.272;8.590;2023-04-01T21:26:52;33.39;30.80;41.96;;
70245;Laerm;57637;49.272;8.590;2023-04-01T21:29:44;35.60;31.45;41.19;;
70245;Laerm;57637;49.272;8.590;2023-04-01T21:50:19;33.66;30.34;44.83;;
70245;Laerm;57637;49.272;8.590;2023-04-01T21:56:00;35.15;31.08;56.27;;
70245;Laerm;57637;49.272;8.590;2023-04-01T22:04:00;36.29;32.06;47.02;;
70245;Laerm;57637;49.272;8.590;2023-04-01T22:07:09;36.08;31.94;45.64;;
70245;Laerm;57637;49.272;8.590;2023-04-01T22:09:39;34.76;29.92;54.16;;
70245;Laerm;57637;49.272;8.590;2023-04-01T22:12:17;37.40;30.21;57.30;;
70245;Laerm;57637;49.272;8.590;2023-04-01T22:21:05;34.67;30.51;47.38;;
70245;Laerm;57637;49.272;8.590;2023-04-01T22:23:47;32.21;29.58;39.59;;
70245;Laerm;57637;49.272;8.590;2023-04-01T22:29:41;33.24;29.41;43.34;;
70245;Laerm;57637;49.272;8.590;2023-04-01T22:32:12;33.67;30.17;39.11;;
70245;Laerm;57637;49.272;8.590;2023-04-01T22:43:11;36.07;30.19;50.30;;
70245;Laerm;57637;49.272;8.590;2023-04-01T22:48:49;32.79;30.03;44.61;;
70245;Laerm;57637;49.272;8.590;2023-04-01T22:54:02;33.26;30.49;39.80;;
70245;Laerm;57637;49.272;8.590;2023-04-01T22:56:40;32.86;29.74;42.48;;
70245;Laerm;57637;49.272;8.590;2023-04-01T22:59:19;33.37;30.21;43.19;;
70245;Laerm;57637;49.272;8.590;2023-04-01T23:02:13;33.30;30.52;49.95;;
70245;Laerm;57637;49.272;8.590;2023-04-01T23:04:42;33.41;30.49;37.45;;
70245;Laerm;57637;49.272;8.590;2023-04-01T23:10:05;37.87;32.11;47.04;;
70245;Laerm;57637;49.272;8.590;2023-04-01T23:12:37;36.06;31.18;45.90;;
70245;Laerm;57637;49.272;8.590;2023-04-01T23:15:03;33.76;30.29;44.57;;
70245;Laerm;57637;49.272;8.590;2023-04-01T23:20:32;44.89;42.14;49.02;;
70245;Laerm;57637;49.272;8.590;2023-04-01T23:23:33;44.08;40.71;51.17;;
70245;Laerm;57637;49.272;8.590;2023-04-01T23:26:14;45.29;39.32;58.95;;
70245;Laerm;57637;49.272;8.590;2023-04-01T23:28:48;47.18;43.74;52.00;;
70245;Laerm;57637;49.272;8.590;2023-04-01T23:31:34;46.18;42.65;55.60;;
70245;Laerm;57637;49.272;8.590;2023-04-01T23:34:21;47.20;43.38;61.46;;
70245;Laerm;57637;49.272;8.590;2023-04-01T23:36:49;48.41;45.04;57.18;;
70245;Laerm;57637;49.272;8.590;2023-04-01T23:39:28;47.40;41.84;63.00;;
70245;Laerm;57637;49.272;8.590;2023-04-01T23:42:00;44.16;37.72;59.35;;
70245;Laerm;57637;49.272;8.590;2023-04-01T23:44:28;36.08;31.77;46.34;;
70245;Laerm;57637;49.272;8.590;2023-04-01T23:46:55;35.65;32.70;42.00;;
70245;Laerm;57637;49.272;8.590;2023-04-01T23:49:29;33.78;30.62;44.83;;
70245;Laerm;57637;49.272;8.590;2023-04-01T23:52:02;37.63;31.08;47.80;;
70245;Laerm;57637;49.272;8.590;2023-04-01T23:54:41;35.29;29.92;44.04;;
70245;Laerm;57637;49.272;8.590;2023-04-01T23:57:14;32.17;29.75;43.79;;
70245;Laerm;57637;49.272;8.590;2023-04-01T23:59:40;32.26;29.75;47.44;;
